Sun Venus — 3ECG6 — position and weather

sailwx.info

Track history (hours):
 
Tides and Currents Weather Stations Pressure Air Temp Water Temp Dewpoint Dewpoint Depression Visibility Wind Speed Wind Dir Waves Ship Positions

Sun Venus

Last reported at 2017-Oct-07 15:56 UTC. Time now 2017-Oct-19 02:12 UTC.
Position N 34°07' E 134°58'.
Warning: this ship's position is 11 days out of date.

Length 107 m; draft 6.2 m.

Type: Ship (hazmat cat D). MMSI: 356248000.

Date/timePositionNaut miles runAvg speedWind from/ knotsBaromVisibWave heightAir tempDewpointWater temp
2017-Oct-07 15:56N 34°07' E 134°58'715.1
2017-Oct-07 15:30N 34°14' E 134°58'814.4
2017-Oct-07 14:59N 34°21' E 134°60'714.1
2017-Oct-07 14:28N 34°28' E 135°02'613.7
2017-Oct-07 14:00N 34°34' E 135°03'510.3
2017-Oct-07 13:30N 34°37' E 134°58'612.2
2017-Oct-07 13:00N 34°34' E 134°51'6 0.2
2017-Oct-06 10:49N 34°37' E 134°58'517.4
2017-Oct-06 10:30N 34°36' E 135°04'612.4
2017-Oct-06 10:00N 34°30' E 135°05'813.7
2017-Oct-06 09:27N 34°23' E 135°02'714.5
2017-Oct-06 09:00N 34°17' E 134°59'714.2
2017-Oct-06 08:30N 34°11' E 135°04'612.7
2017-Oct-06 08:01N 34°09' E 135°11'1 0.1
2017-Oct-05 23:46N 34°09' E 135°12'0 0.8
2017-Oct-05 23:30N 34°09' E 135°12'2 4.1
2017-Oct-05 22:58N 34°09' E 135°09'0 0.0
2017-Oct-05 22:25N 34°09' E 135°09'0 0.0
2017-Oct-05 21:58N 34°09' E 135°09'0 0.0
2017-Oct-05 21:25N 34°09' E 135°09'0 0.1
2017-Oct-05 20:58N 34°09' E 135°09'0 0.0
2017-Oct-05 20:28N 34°09' E 135°09'0 0.0
2017-Oct-05 19:55N 34°09' E 135°09'0 0.0
2017-Oct-05 19:28N 34°09' E 135°09'0 0.1
2017-Oct-05 18:58N 34°09' E 135°09'0 0.0
2017-Oct-05 18:28N 34°09' E 135°09'0 0.0
2017-Oct-05 17:58N 34°09' E 135°09'0 0.0
2017-Oct-05 17:28N 34°09' E 135°09'0 0.1
2017-Oct-05 16:58N 34°09' E 135°09'0 0.0
2017-Oct-05 15:28N 34°09' E 135°09'0 0.1
2017-Oct-05 14:58N 34°09' E 135°09'0 0.1
2017-Oct-05 14:28N 34°09' E 135°09'0 0.0
2017-Oct-05 13:58N 34°09' E 135°09'0 0.0
2017-Oct-05 13:28N 34°09' E 135°09'0 0.0
2017-Oct-05 12:58N 34°09' E 135°09'0 0.0
2017-Oct-05 12:25N 34°09' E 135°09'0 0.0
2017-Oct-05 11:55N 34°09' E 135°09'0 0.0
2017-Oct-05 11:28N 34°09' E 135°09'0 0.0
2017-Oct-05 10:58N 34°09' E 135°09'0 0.0
2017-Oct-05 10:28N 34°09' E 135°09'0 0.0
2017-Oct-05 09:58N 34°09' E 135°09'0 0.0
2017-Oct-05 09:25N 34°09' E 135°09'0 0.1
2017-Oct-05 08:58N 34°09' E 135°09'0 0.0
2017-Oct-05 08:28N 34°09' E 135°09'0 0.1
2017-Oct-05 07:58N 34°09' E 135°09'3 5.8
2017-Oct-05 07:31N 34°08' E 135°06'713.9
2017-Oct-05 07:00N 34°03' E 135°00'  
2017-Oct-01 14:36N 31°03' E 122°15'411.6
2017-Oct-01 14:15N 31°03' E 122°10'311.9
2017-Oct-01 14:00N 31°03' E 122°06'713.3
2017-Oct-01 13:30N 31°06' E 121°59'611.5
2017-Oct-01 13:00N 31°09' E 121°53'611.8
2017-Oct-01 12:31N 31°13' E 121°48'611.0
2017-Oct-01 12:00N 31°17' E 121°44'4 8.4
2017-Oct-01 11:30N 31°20' E 121°41'5 9.9
2017-Oct-01 11:00N 31°23' E 121°36'5 9.4
2017-Oct-01 10:30N 31°25' E 121°31'5 9.3
2017-Oct-01 10:00N 31°28' E 121°27'611.4
2017-Oct-01 09:30N 31°32' E 121°22'612.4
2017-Oct-01 09:00N 31°36' E 121°17'714.7
2017-Oct-01 08:30N 31°41' E 121°11'914.2
2017-Oct-01 07:51N 31°46' E 121°02'43 1.4
2017-Sep-30 02:00N 31°20' E 121°42'510.1
2017-Sep-30 01:30N 31°18' E 121°47'612.8
2017-Sep-30 01:00N 31°16' E 121°54'612.8
2017-Sep-30 00:31N 31°15' E 122°01'612.1
2017-Sep-30 00:00N 31°13' E 122°08'612.9
2017-Sep-29 23:30N 31°09' E 122°14'510.7
2017-Sep-29 23:00N 31°06' E 122°20'5 8.5
2017-Sep-29 22:26N 31°06' E 122°25'3 6.9
2017-Sep-29 22:00N 31°08' E 122°28'  
Track history (hours):
 
Tides and Currents Weather Stations Pressure Air Temp Water Temp Dewpoint Dewpoint Depression Visibility Wind Speed Wind Dir Waves Ship Positions

Sun Venus

Last reported at 2017-Oct-07 15:56 UTC. Time now 2017-Oct-19 02:12 UTC.
Position N 34°07' E 134°58'.
Warning: this ship's position is 11 days out of date.

Length 107 m; draft 6.2 m.

Type: Ship (hazmat cat D). MMSI: 356248000.

Date/timePositionNaut miles runAvg speedWind from/ knotsBaromVisibWave heightAir tempDewpointWater temp
2017-Oct-07 15:56N 34°07' E 134°58'715.1
2017-Oct-07 15:30N 34°14' E 134°58'814.4
2017-Oct-07 14:59N 34°21' E 134°60'714.1
2017-Oct-07 14:28N 34°28' E 135°02'613.7
2017-Oct-07 14:00N 34°34' E 135°03'510.3
2017-Oct-07 13:30N 34°37' E 134°58'612.2
2017-Oct-07 13:00N 34°34' E 134°51'6 0.2
2017-Oct-06 10:49N 34°37' E 134°58'517.4
2017-Oct-06 10:30N 34°36' E 135°04'612.4
2017-Oct-06 10:00N 34°30' E 135°05'813.7
2017-Oct-06 09:27N 34°23' E 135°02'714.5
2017-Oct-06 09:00N 34°17' E 134°59'714.2
2017-Oct-06 08:30N 34°11' E 135°04'612.7
2017-Oct-06 08:01N 34°09' E 135°11'1 0.1
2017-Oct-05 23:46N 34°09' E 135°12'0 0.8
2017-Oct-05 23:30N 34°09' E 135°12'2 4.1
2017-Oct-05 22:58N 34°09' E 135°09'0 0.0
2017-Oct-05 22:25N 34°09' E 135°09'0 0.0
2017-Oct-05 21:58N 34°09' E 135°09'0 0.0
2017-Oct-05 21:25N 34°09' E 135°09'0 0.1
2017-Oct-05 20:58N 34°09' E 135°09'0 0.0
2017-Oct-05 20:28N 34°09' E 135°09'0 0.0
2017-Oct-05 19:55N 34°09' E 135°09'0 0.0
2017-Oct-05 19:28N 34°09' E 135°09'0 0.1
2017-Oct-05 18:58N 34°09' E 135°09'0 0.0
2017-Oct-05 18:28N 34°09' E 135°09'0 0.0
2017-Oct-05 17:58N 34°09' E 135°09'0 0.0
2017-Oct-05 17:28N 34°09' E 135°09'0 0.1
2017-Oct-05 16:58N 34°09' E 135°09'0 0.0
2017-Oct-05 15:28N 34°09' E 135°09'0 0.1
2017-Oct-05 14:58N 34°09' E 135°09'0 0.1
2017-Oct-05 14:28N 34°09' E 135°09'0 0.0
2017-Oct-05 13:58N 34°09' E 135°09'0 0.0
2017-Oct-05 13:28N 34°09' E 135°09'0 0.0
2017-Oct-05 12:58N 34°09' E 135°09'0 0.0
2017-Oct-05 12:25N 34°09' E 135°09'0 0.0
2017-Oct-05 11:55N 34°09' E 135°09'0 0.0
2017-Oct-05 11:28N 34°09' E 135°09'0 0.0
2017-Oct-05 10:58N 34°09' E 135°09'0 0.0
2017-Oct-05 10:28N 34°09' E 135°09'0 0.0
2017-Oct-05 09:58N 34°09' E 135°09'0 0.0
2017-Oct-05 09:25N 34°09' E 135°09'0 0.1
2017-Oct-05 08:58N 34°09' E 135°09'0 0.0
2017-Oct-05 08:28N 34°09' E 135°09'0 0.1
2017-Oct-05 07:58N 34°09' E 135°09'3 5.8
2017-Oct-05 07:31N 34°08' E 135°06'713.9
2017-Oct-05 07:00N 34°03' E 135°00'  
2017-Oct-01 14:36N 31°03' E 122°15'411.6
2017-Oct-01 14:15N 31°03' E 122°10'311.9
2017-Oct-01 14:00N 31°03' E 122°06'713.3
2017-Oct-01 13:30N 31°06' E 121°59'611.5
2017-Oct-01 13:00N 31°09' E 121°53'611.8
2017-Oct-01 12:31N 31°13' E 121°48'611.0
2017-Oct-01 12:00N 31°17' E 121°44'4 8.4
2017-Oct-01 11:30N 31°20' E 121°41'5 9.9
2017-Oct-01 11:00N 31°23' E 121°36'5 9.4
2017-Oct-01 10:30N 31°25' E 121°31'5 9.3
2017-Oct-01 10:00N 31°28' E 121°27'611.4
2017-Oct-01 09:30N 31°32' E 121°22'612.4
2017-Oct-01 09:00N 31°36' E 121°17'714.7
2017-Oct-01 08:30N 31°41' E 121°11'914.2
2017-Oct-01 07:51N 31°46' E 121°02'43 1.4
2017-Sep-30 02:00N 31°20' E 121°42'510.1
2017-Sep-30 01:30N 31°18' E 121°47'612.8
2017-Sep-30 01:00N 31°16' E 121°54'612.8
2017-Sep-30 00:31N 31°15' E 122°01'612.1
2017-Sep-30 00:00N 31°13' E 122°08'612.9
2017-Sep-29 23:30N 31°09' E 122°14'510.7
2017-Sep-29 23:00N 31°06' E 122°20'5 8.5
2017-Sep-29 22:26N 31°06' E 122°25'3 6.9
2017-Sep-29 22:00N 31°08' E 122°28'  

Dump ship's entire track history